Aviation Digital Data Service (ADDS)

Output produced by METARs form (0407 UTC 01 February 2015)
found at http://aviationweather.gov/adds/metars/
 
KAVL 312322Z 0100/0124 25003KT P6SM BKN120 
     FM011500 18006KT P6SM BKN110 
     FM011800 18010G17KT P6SM OVC060 
     FM012100 17008KT P6SM OVC022 
     FM012200 17008KT P6SM OVC019 
     FM012300 16007KT 4SM -RA OVC015